createdAt,value
2023-04-26T00:03:26.942Z,1.10
2023-04-26T00:08:48.926Z,1.58
2023-04-26T00:14:11.788Z,2.83
2023-04-26T00:19:33.710Z,1.25
2023-04-26T00:24:55.492Z,1.25
2023-04-26T00:30:17.319Z,0.93
2023-04-26T00:35:39.389Z,0.77
2023-04-26T00:41:01.291Z,0.52
2023-04-26T00:46:23.240Z,0.55
2023-04-26T00:51:45.676Z,1.85
2023-04-26T00:57:10.056Z,0.52
2023-04-26T01:02:32.069Z,0.80
2023-04-26T01:07:54.195Z,1.10
2023-04-26T01:13:16.827Z,0.75
2023-04-26T01:18:38.802Z,0.65
2023-04-26T01:24:00.640Z,1.02
2023-04-26T01:29:24.526Z,0.65
2023-04-26T01:34:46.833Z,0.60
2023-04-26T01:40:10.068Z,0.82
2023-04-26T01:45:31.849Z,1.23
2023-04-26T01:50:53.617Z,0.70
2023-04-26T01:56:16.346Z,0.95
2023-04-26T02:01:38.227Z,0.68
2023-04-26T02:07:00.070Z,0.98
2023-04-26T02:12:22.294Z,2.70
2023-04-26T02:17:44.284Z,0.57
2023-04-26T02:23:08.829Z,0.45
2023-04-26T02:28:31.714Z,0.68
2023-04-26T02:33:53.688Z,1.25
2023-04-26T02:39:15.632Z,0.75
2023-04-26T02:44:40.020Z,0.95
2023-04-26T02:50:01.978Z,0.30
2023-04-26T02:55:23.809Z,0.52
2023-04-26T03:00:47.970Z,0.70
2023-04-26T03:06:10.187Z,0.35
2023-04-26T03:11:32.216Z,1.00
2023-04-26T03:16:54.185Z,0.57
2023-04-26T03:22:16.694Z,1.27
2023-04-26T03:27:38.654Z,0.30
2023-04-26T03:33:00.987Z,0.43
2023-04-26T03:38:23.889Z,0.90
2023-04-26T03:43:45.785Z,0.65
2023-04-26T03:49:08.441Z,0.90
2023-04-26T03:54:30.468Z,0.60
2023-04-26T03:59:52.226Z,0.63
2023-04-26T04:05:14.383Z,1.02
2023-04-26T04:10:38.332Z,0.82
2023-04-26T04:16:00.311Z,0.40
2023-04-26T04:21:22.113Z,1.15
2023-04-26T04:26:43.890Z,0.65
2023-04-26T04:32:06.084Z,1.92
2023-04-26T04:37:29.069Z,0.40
2023-04-26T04:42:51.152Z,0.40
2023-04-26T04:48:12.945Z,0.70
2023-04-26T04:53:35.248Z,0.50
2023-04-26T04:58:57.227Z,0.57
2023-04-26T05:04:19.166Z,2.20
2023-04-26T05:09:42.272Z,0.43
2023-04-26T05:15:05.009Z,1.80
2023-04-26T05:20:26.836Z,4.93
2023-04-26T05:25:48.662Z,0.88
2023-04-26T05:31:11.585Z,15.30
2023-04-26T05:36:33.637Z,10.02
2023-04-26T05:41:55.398Z,11.73
2023-04-26T05:47:17.214Z,14.98
2023-04-26T05:52:39.057Z,21.77
2023-04-26T05:58:00.816Z,21.52
2023-04-26T06:03:22.807Z,20.77
2023-04-26T06:08:44.695Z,19.90
2023-04-26T06:14:07.821Z,23.98
2023-04-26T06:19:34.028Z,23.60
2023-04-26T06:24:55.969Z,14.55
2023-04-26T06:30:18.223Z,21.33
2023-04-26T06:35:41.734Z,13.07
2023-04-26T06:41:03.656Z,10.23
2023-04-26T06:46:25.493Z,12.38
2023-04-26T06:51:47.656Z,16.70
2023-04-26T06:57:09.522Z,16.65
2023-04-26T07:02:31.530Z,9.30
2023-04-26T07:07:53.729Z,6.35
2023-04-26T07:13:15.638Z,7.93
2023-04-26T07:18:37.444Z,11.43
2023-04-26T07:23:59.255Z,7.80
2023-04-26T07:29:21.598Z,6.75
2023-04-26T07:34:43.359Z,9.02
2023-04-26T07:40:08.444Z,5.85
2023-04-26T07:45:30.215Z,6.07
2023-04-26T07:50:52.391Z,5.00
2023-04-26T07:56:14.317Z,5.85
2023-04-26T08:01:36.273Z,6.88
2023-04-26T08:06:58.060Z,7.65
2023-04-26T08:12:19.923Z,4.75
2023-04-26T08:17:42.162Z,4.72
2023-04-26T08:23:04.288Z,5.40
2023-04-26T08:28:26.556Z,8.75
2023-04-26T08:33:48.400Z,15.48
2023-04-26T08:39:10.267Z,9.00
2023-04-26T08:44:36.016Z,15.30
2023-04-26T08:50:03.999Z,10.07
2023-04-26T08:55:27.577Z,18.20
2023-04-26T09:00:51.084Z,20.58
2023-04-26T09:06:13.431Z,11.68
2023-04-26T09:11:59.859Z,9.35
2023-04-26T09:17:37.288Z,10.63
2023-04-26T09:23:10.193Z,12.25
2023-04-26T09:28:31.938Z,7.90
2023-04-26T09:34:00.552Z,7.70
2023-04-26T09:39:37.848Z,4.05
2023-04-26T09:45:06.796Z,9.45
2023-04-26T09:50:30.374Z,4.57
2023-04-26T09:55:52.218Z,6.90
2023-04-26T10:01:16.608Z,4.03
2023-04-26T10:06:41.844Z,6.72
2023-04-26T10:12:04.281Z,3.60
2023-04-26T10:17:26.164Z,3.83
2023-04-26T10:22:54.069Z,2.55
2023-04-26T10:28:16.452Z,2.17
2023-04-26T10:33:38.771Z,4.53
2023-04-26T10:39:26.022Z,4.43
2023-04-26T10:44:48.011Z,4.22
2023-04-26T10:50:11.542Z,3.63
2023-04-26T10:55:43.266Z,3.05
2023-04-26T11:01:16.716Z,4.35
2023-04-26T11:06:51.722Z,3.45
2023-04-26T11:12:16.639Z,5.90
2023-04-26T11:17:38.577Z,4.25
2023-04-26T11:23:01.729Z,3.55
2023-04-26T11:28:23.693Z,4.38
2023-04-26T11:33:45.996Z,2.63
2023-04-26T11:39:08.613Z,4.63
2023-04-26T11:44:30.661Z,2.50
2023-04-26T11:49:52.724Z,4.38
2023-04-26T11:55:15.143Z,2.78
2023-04-26T12:00:37.042Z,3.25
2023-04-26T12:05:58.853Z,2.42
2023-04-26T12:11:21.027Z,2.17
2023-04-26T12:16:43.504Z,2.67
2023-04-26T12:22:09.399Z,3.00
2023-04-26T12:27:31.241Z,3.85
2023-04-26T12:32:55.724Z,1.92
2023-04-26T12:38:20.128Z,2.13
2023-04-26T12:43:42.086Z,1.52
2023-04-26T12:49:04.395Z,1.02
2023-04-26T12:54:26.445Z,2.58
2023-04-26T12:59:48.459Z,1.88
2023-04-26T13:05:11.227Z,1.48
2023-04-26T13:10:33.349Z,2.25
2023-04-26T13:15:55.644Z,1.13
2023-04-26T13:21:17.452Z,3.55
2023-04-26T13:26:39.302Z,3.33
2023-04-26T13:32:01.628Z,4.65
2023-04-26T13:37:24.213Z,1.55
2023-04-26T13:42:46.056Z,5.75
2023-04-26T13:48:07.947Z,3.85
2023-04-26T13:53:29.740Z,7.57
2023-04-26T13:58:56.616Z,2.72
2023-04-26T14:04:18.628Z,2.63
2023-04-26T14:09:40.738Z,5.15
2023-04-26T14:15:04.519Z,2.88
2023-04-26T14:20:26.377Z,3.08
2023-04-26T14:25:52.032Z,4.18
2023-04-26T14:31:14.027Z,3.25
2023-04-26T14:36:35.840Z,6.47
2023-04-26T14:41:58.064Z,3.63
2023-04-26T14:47:19.913Z,3.13
2023-04-26T14:52:42.108Z,5.10
2023-04-26T14:58:03.930Z,8.18
2023-04-26T15:03:25.811Z,8.48
2023-04-26T15:08:50.832Z,3.95
2023-04-26T15:14:12.657Z,5.53
2023-04-26T15:19:34.721Z,4.55
2023-04-26T15:24:57.012Z,3.15
2023-04-26T15:30:18.877Z,2.97
2023-04-26T15:35:40.892Z,3.75
2023-04-26T15:41:03.140Z,4.10
2023-04-26T15:46:24.965Z,7.50
2023-04-26T15:51:46.843Z,4.40
2023-04-26T15:57:08.633Z,5.45
2023-04-26T16:02:30.531Z,5.43
2023-04-26T16:07:52.491Z,5.78
2023-04-26T16:13:15.452Z,4.70
2023-04-26T16:18:40.110Z,4.28
2023-04-26T16:24:02.019Z,5.67
2023-04-26T16:29:25.239Z,4.07
2023-04-26T16:34:47.802Z,9.23
2023-04-26T16:40:10.876Z,3.90
2023-04-26T16:45:32.732Z,4.93
2023-04-26T16:50:54.648Z,7.78
2023-04-26T16:56:16.629Z,3.97
2023-04-26T17:01:38.515Z,5.25
2023-04-26T17:07:00.373Z,4.20
2023-04-26T17:12:22.476Z,7.43
2023-04-26T17:17:44.322Z,5.00
2023-04-26T17:23:06.215Z,5.40
2023-04-26T17:28:28.101Z,2.95
2023-04-26T17:33:49.938Z,8.90
2023-04-26T17:39:11.771Z,3.60
2023-04-26T17:44:33.553Z,5.07
2023-04-26T17:49:55.406Z,2.58
2023-04-26T17:55:17.326Z,1.85
2023-04-26T18:00:39.501Z,4.25
2023-04-26T18:06:01.801Z,1.50
2023-04-26T18:11:23.688Z,3.45
2023-04-26T18:16:45.508Z,3.30
2023-04-26T18:22:08.016Z,8.20
2023-04-26T18:27:30.137Z,17.23
2023-04-26T18:32:53.142Z,16.92
2023-04-26T18:38:15.227Z,25.40
2023-04-26T18:43:37.000Z,17.33
2023-04-26T18:48:58.774Z,15.82
2023-04-26T18:54:20.625Z,15.25
2023-04-26T18:59:42.428Z,16.67
2023-04-26T19:05:04.904Z,10.07
2023-04-26T19:10:27.045Z,9.88
2023-04-26T19:15:48.911Z,8.50
2023-04-26T19:21:10.834Z,8.80
2023-04-26T19:26:32.970Z,6.80
2023-04-26T19:31:54.764Z,7.03
2023-04-26T19:37:16.645Z,5.43
2023-04-26T19:42:38.416Z,5.05
2023-04-26T19:48:00.291Z,8.20
2023-04-26T19:53:22.286Z,3.85
2023-04-26T19:58:44.160Z,3.60
2023-04-26T20:04:06.383Z,16.27
2023-04-26T20:09:29.454Z,14.07
2023-04-26T20:14:52.768Z,16.77
2023-04-26T20:20:17.739Z,10.80
2023-04-26T20:25:40.308Z,14.50
2023-04-26T20:31:02.624Z,18.65
2023-04-26T20:36:26.469Z,24.27
2023-04-26T20:41:48.365Z,15.57
2023-04-26T20:47:10.224Z,12.82
2023-04-26T20:52:32.327Z,9.20
2023-04-26T20:57:54.136Z,8.48
2023-04-26T21:03:16.215Z,5.32
2023-04-26T21:08:38.491Z,7.60
2023-04-26T21:14:00.596Z,11.32
2023-04-26T21:19:22.412Z,11.40
2023-04-26T21:24:44.496Z,10.95
2023-04-26T21:30:07.359Z,15.60
2023-04-26T21:35:29.542Z,7.47
2023-04-26T21:40:51.396Z,5.60
2023-04-26T21:46:13.275Z,10.70
2023-04-26T21:51:35.100Z,8.70
2023-04-26T21:56:56.880Z,12.25
2023-04-26T22:02:19.186Z,9.23
2023-04-26T22:07:41.241Z,9.32
2023-04-26T22:13:03.171Z,3.67
2023-04-26T22:18:26.563Z,7.03
2023-04-26T22:23:48.369Z,4.70
2023-04-26T22:29:10.350Z,7.63
2023-04-26T22:34:32.259Z,3.90
2023-04-26T22:39:54.130Z,7.35
2023-04-26T22:45:16.334Z,6.10
2023-04-26T22:50:38.216Z,4.50
2023-04-26T22:55:59.998Z,2.63
2023-04-26T23:01:21.884Z,7.18
2023-04-26T23:06:43.924Z,3.67
2023-04-26T23:12:05.990Z,3.10
2023-04-26T23:41:15.046Z,4.30
2023-04-26T23:46:36.918Z,2.33
2023-04-26T23:51:58.681Z,3.60
2023-04-26T23:57:20.697Z,3.85
